Time;durP1;ratioP1;P1;durP2;ratioP2;P2;SDS_P1;SDS_P2;PMS_P1;PMS_P2;Temp;Humidity;BMP_temperature;BMP_pressure;BME280_temperature;BME280_humidity;BME280_pressure;Samples;Min_cycle;Max_cycle;Signal;HPM_P1;HPM_P2
2020/12/22 00:00:38;;;;;;;33.17;31.67;;;12.50;99.90;;;;;;6184493;23;20401;-79
2020/12/22 00:03:06;;;;;;;28.70;27.43;;;12.60;99.90;;;;;;6185105;23;20897;-80
2020/12/22 00:05:35;;;;;;;26.33;25.03;;;12.60;99.90;;;;;;6185309;23;20406;-79
2020/12/22 00:08:01;;;;;;;16.23;15.40;;;12.60;99.90;;;;;;6184413;23;20401;-80
2020/12/22 00:10:31;;;;;;;13.73;12.63;;;12.70;99.90;;;;;;6194754;23;20413;-80
2020/12/22 00:12:59;;;;;;;16.87;15.97;;;12.90;99.90;;;;;;6183356;23;20451;-79
2020/12/22 00:15:35;;;;;;;11.83;11.13;;;12.90;99.90;;;;;;6183888;23;20460;-79
2020/12/22 00:18:08;;;;;;;11.37;10.67;;;12.80;99.90;;;;;;6194807;23;20436;-79
2020/12/22 00:20:35;;;;;;;10.40;9.70;;;12.90;99.90;;;;;;6193861;23;20416;-79
2020/12/22 00:23:03;;;;;;;7.40;6.80;;;13.00;99.90;;;;;;6194869;23;20492;-80
2020/12/22 00:25:32;;;;;;;7.13;6.53;;;13.10;99.90;;;;;;6185356;23;20488;-79
2020/12/22 00:28:14;;;;;;;6.73;6.23;;;13.10;99.90;;;;;;6193823;23;20868;-80
2020/12/22 00:30:45;;;;;;;6.00;4.63;;;13.10;99.90;;;;;;6185942;23;20397;-79
2020/12/22 00:33:23;;;;;;;5.57;4.33;;;13.20;99.90;;;;;;6195977;23;20401;-80
2020/12/22 00:38:40;;;;;;;;;;;;;;;;;;;;;
2020/12/22 00:41:23;;;;;;;8.27;5.20;;;13.30;99.90;;;;;;6129478;23;20743;-79
2020/12/22 00:44:10;;;;;;;5.80;3.93;;;13.30;99.90;;;;;;6154994;23;20407;-79
2020/12/22 00:46:38;;;;;;;5.10;4.07;;;13.30;99.90;;;;;;6182552;23;20404;-81
2020/12/22 00:49:19;;;;;;;4.70;3.60;;;13.30;99.90;;;;;;6186352;23;20397;-81
2020/12/22 00:51:53;;;;;;;5.60;3.53;;;13.40;99.90;;;;;;6195887;23;20412;-81
2020/12/22 00:54:19;;;;;;;6.37;3.63;;;13.40;99.90;;;;;;6185700;23;20403;-81
2020/12/22 00:56:53;;;;;;;5.40;3.60;;;13.50;99.90;;;;;;6186186;23;20433;-81
2020/12/22 00:59:30;;;;;;;6.80;3.17;;;13.50;99.90;;;;;;6184673;23;20402;-81
2020/12/22 01:02:06;;;;;;;;;;;;;;;;;;;;;
2020/12/22 01:04:59;;;;;;;;;;;;;;;;;;;;;
2020/12/22 01:07:43;;;;;;;6.27;3.40;;;13.60;99.90;;;;;;6185823;23;20724;-81
2020/12/22 01:10:22;;;;;;;;;;;;;;;;;;;;;
2020/12/22 01:13:11;;;;;;;9.90;3.50;;;13.50;99.90;;;;;;6157830;23;20404;-82
2020/12/22 01:15:52;;;;;;;;;;;;;;;;;;;;;
2020/12/22 01:18:33;;;;;;;;;;;;;;;;;;;;;
2020/12/22 01:21:00;;;;;;;4.27;2.90;;;13.70;99.90;;;;;;6184948;23;20414;-82
2020/12/22 01:23:39;;;;;;;4.87;3.43;;;13.70;99.90;;;;;;6185659;23;20405;-81
2020/12/22 01:26:09;;;;;;;5.70;5.10;;;13.50;99.90;;;;;;6195987;23;20433;-81
2020/12/22 01:29:04;;;;;;;;;;;;;;;;;;;;;
2020/12/22 01:32:01;;;;;;;;;;;;;;;;;;;;;
2020/12/22 01:34:49;;;;;;;5.17;4.67;;;13.50;99.90;;;;;;6170665;23;20909;-82
2020/12/22 01:37:45;;;;;;;7.10;5.00;;;13.50;99.90;;;;;;6175217;23;20448;-82
2020/12/22 01:40:51;;;;;;;;;;;;;;;;;;;;;
2020/12/22 01:43:48;;;;;;;5.30;4.80;;;13.50;99.90;;;;;;6074979;23;20416;-82
2020/12/22 01:46:24;;;;;;;6.17;4.67;;;13.50;99.90;;;;;;6124437;23;20419;-81
2020/12/22 01:49:28;;;;;;;9.83;5.40;;;13.50;99.90;;;;;;6182977;23;20404;-83
2020/12/22 01:52:21;;;;;;;5.70;5.20;;;13.40;99.90;;;;;;6195389;23;20405;-82
2020/12/22 01:54:49;;;;;;;5.73;5.00;;;13.40;99.90;;;;;;6143637;23;20439;-81
2020/12/22 01:57:17;;;;;;;6.67;5.50;;;13.40;99.90;;;;;;6184012;23;20552;-82
2020/12/22 01:59:48;;;;;;;9.43;6.33;;;13.40;99.90;;;;;;6184959;23;20440;-82
2020/12/22 02:02:31;;;;;;;13.07;5.90;;;13.50;99.90;;;;;;6184517;23;20814;-81
2020/12/22 02:05:01;;;;;;;14.07;5.80;;;13.50;99.90;;;;;;6185264;23;20401;-81
2020/12/22 02:07:30;;;;;;;5.33;4.83;;;13.50;99.90;;;;;;6185026;23;20393;-81
2020/12/22 02:10:05;;;;;;;5.87;4.90;;;13.60;99.90;;;;;;6184686;23;20402;-82
2020/12/22 02:12:40;;;;;;;13.77;6.87;;;13.50;99.90;;;;;;6141250;23;20413;-81
2020/12/22 02:15:08;;;;;;;11.23;7.67;;;13.40;99.90;;;;;;6185132;23;20463;-81
2020/12/22 02:17:39;;;;;;;8.43;7.73;;;13.40;99.90;;;;;;6184555;23;20439;-81
2020/12/22 02:20:09;;;;;;;8.80;8.10;;;13.40;99.90;;;;;;6185266;23;20397;-81
2020/12/22 02:22:37;;;;;;;9.23;8.10;;;13.40;99.90;;;;;;6184347;23;20397;-81
2020/12/22 02:25:12;;;;;;;8.63;8.00;;;13.30;99.90;;;;;;6194738;23;20459;-81
2020/12/22 02:27:39;;;;;;;8.67;7.97;;;13.40;99.90;;;;;;6183165;23;20520;-81
2020/12/22 02:30:08;;;;;;;9.83;8.43;;;13.40;99.90;;;;;;6184803;23;20484;-81
2020/12/22 02:32:37;;;;;;;9.20;8.10;;;13.30;99.90;;;;;;6184484;23;20825;-81
2020/12/22 02:35:34;;;;;;;;;;;;;;;;;;;;;
2020/12/22 02:38:01;;;;;;;8.57;7.87;;;13.40;99.90;;;;;;6171363;23;20449;-81
2020/12/22 02:40:53;;;;;;;8.40;7.70;;;13.50;99.90;;;;;;6184819;23;20884;-82
2020/12/22 02:43:28;;;;;;;10.97;10.27;;;13.40;99.90;;;;;;6015224;23;20745;-81
2020/12/22 02:45:56;;;;;;;11.70;10.67;;;13.30;99.90;;;;;;6132878;23;20417;-82
2020/12/22 02:48:24;;;;;;;11.90;11.10;;;13.30;99.90;;;;;;6185168;23;20460;-80
2020/12/22 02:50:51;;;;;;;12.57;11.77;;;13.40;99.90;;;;;;6184944;23;20401;-81
2020/12/22 02:53:18;;;;;;;13.20;12.10;;;13.40;99.90;;;;;;6187020;23;20401;-80
2020/12/22 02:55:45;;;;;;;12.40;11.43;;;13.40;99.90;;;;;;6187028;23;20433;-81
2020/12/22 02:58:12;;;;;;;13.90;12.90;;;13.30;99.90;;;;;;6185441;23;20405;-80
2020/12/22 03:00:42;;;;;;;13.80;12.90;;;13.30;99.90;;;;;;6186600;23;20405;-81
2020/12/22 03:03:17;;;;;;;13.40;12.20;;;13.30;99.90;;;;;;6186890;23;20464;-81
2020/12/22 03:05:49;;;;;;;14.37;12.90;;;13.40;99.90;;;;;;6186708;23;20400;-81
2020/12/22 03:08:49;;;;;;;;;;;;;;;;;;;;;
2020/12/22 03:11:19;;;;;;;14.07;13.17;;;13.30;99.90;;;;;;6197142;23;20455;-81
2020/12/22 03:13:50;;;;;;;12.33;11.63;;;13.20;99.90;;;;;;6185509;23;20491;-81
2020/12/22 03:16:19;;;;;;;11.37;10.67;;;13.20;99.90;;;;;;6186842;23;21097;-81
2020/12/22 03:18:57;;;;;;;;;;;;;;;;;;;;;
2020/12/22 03:21:53;;;;;;;11.60;10.80;;;13.30;99.90;;;;;;6186042;23;21032;-81
2020/12/22 03:27:29;;;;;;;11.13;10.27;;;13.30;99.90;;;;;;6140352;23;20453;-80
2020/12/22 03:30:12;;;;;;;9.80;9.10;;;13.40;99.90;;;;;;6141744;23;20421;-79
2020/12/22 03:32:43;;;;;;;8.43;7.73;;;13.40;99.90;;;;;;6090806;23;20482;-79
2020/12/22 03:35:13;;;;;;;8.10;7.30;;;13.40;99.90;;;;;;6156880;23;20408;-80
2020/12/22 03:38:06;;;;;;;;;;;;;;;;;;;;;
2020/12/22 03:41:28;;;;;;;;;;;;;;;;;;;;;
2020/12/22 03:44:13;;;;;;;;;;;;;;;;;;;;;
2020/12/22 03:50:24;;;;;;;6.00;5.50;;;13.40;99.90;;;;;;5913878;24;20917;-79
2020/12/22 03:53:22;;;;;;;5.60;5.10;;;13.50;99.90;;;;;;6083794;23;20756;-80
2020/12/22 03:55:50;;;;;;;6.10;5.57;;;13.60;99.90;;;;;;6196433;23;20405;-79
2020/12/22 04:01:41;;;;;;;;;;;;;;;;;;;;;
2020/12/22 04:04:51;;;;;;;;;;;;;;;;;;;;;
2020/12/22 04:07:43;;;;;;;5.97;5.53;;;13.60;99.90;;;;;;6196259;23;20405;-80
2020/12/22 04:21:35;;;;;;;6.30;5.80;;;13.60;99.90;;;;;;5936046;24;20423;-80
2020/12/22 04:24:04;;;;;;;12.03;11.33;;;13.60;99.90;;;;;;5990357;24;20415;-81
2020/12/22 04:26:48;;;;;;;12.93;12.00;;;13.60;99.90;;;;;;6004876;23;20446;-82
2020/12/22 04:29:15;;;;;;;15.93;15.13;;;13.40;99.90;;;;;;6184403;23;20397;-82
2020/12/22 04:32:02;;;;;;;19.00;18.00;;;13.40;99.90;;;;;;6196276;23;20492;-82
2020/12/22 04:34:33;;;;;;;23.17;22.07;;;13.30;99.90;;;;;;6185979;23;20437;-82
2020/12/22 04:37:07;;;;;;;23.20;22.20;;;13.40;99.90;;;;;;6196248;23;20755;-82
2020/12/22 04:42:31;;;;;;;19.80;18.80;;;13.40;99.90;;;;;;6181796;23;20424;-82
2020/12/22 04:45:14;;;;;;;;;;;;;;;;;;;;;
2020/12/22 04:48:03;;;;;;;11.87;11.27;;;13.60;99.90;;;;;;6185024;23;20409;-82
2020/12/22 04:50:50;;;;;;;11.80;11.20;;;13.50;99.90;;;;;;6196197;23;20404;-82
2020/12/22 04:53:20;;;;;;;9.80;9.20;;;13.60;99.90;;;;;;6195932;23;20743;-82
2020/12/22 04:56:09;;;;;;;7.70;7.20;;;13.60;99.90;;;;;;6195697;23;20424;-82
2020/12/22 04:58:50;;;;;;;;;;;;;;;;;;;;;
2020/12/22 05:01:25;;;;;;;7.60;6.90;;;13.70;99.90;;;;;;6196044;23;20861;-83
2020/12/22 05:04:02;;;;;;;7.17;6.57;;;13.70;99.90;;;;;;6186049;23;20737;-82
2020/12/22 05:07:00;;;;;;;;;;;;;;;;;;;;;
2020/12/22 05:09:52;;;;;;;7.43;6.83;;;13.80;99.90;;;;;;6195970;23;20480;-83
2020/12/22 05:13:04;;;;;;;;;;;;;;;;;;;;;
2020/12/22 05:16:01;;;;;;;11.33;10.63;;;13.60;99.90;;;;;;6018086;23;20446;-81
2020/12/22 05:22:03;;;;;;;15.60;14.80;;;13.30;99.90;;;;;;6037086;23;20445;-80
2020/12/22 05:24:48;;;;;;;;;;;;;;;;;;;;;
2020/12/22 05:27:36;;;;;;;;;;;;;;;;;;;;;
2020/12/22 05:30:10;;;;;;;11.33;10.73;;;13.40;99.90;;;;;;6119048;23;20714;-80
2020/12/22 05:32:43;;;;;;;11.40;10.70;;;13.50;99.90;;;;;;6185784;23;20400;-81
2020/12/22 05:35:30;;;;;;;;;;;;;;;;;;;;;
2020/12/22 05:38:06;;;;;;;16.40;15.40;;;13.40;99.90;;;;;;6093763;23;20449;-80
2020/12/22 05:40:49;;;;;;;;;;;;;;;;;;;;;
2020/12/22 05:44:02;;;;;;;;;;;;;;;;;;;;;
2020/12/22 05:46:51;;;;;;;14.90;13.93;;;13.40;99.90;;;;;;6126625;23;20444;-80
2020/12/22 05:53:27;;;;;;;;;;;;;;;;;;;;;
2020/12/22 05:56:06;;;;;;;;;;;;;;;;;;;;;
2020/12/22 05:58:37;;;;;;;9.00;8.50;;;13.50;99.90;;;;;;6193773;23;20408;-80
2020/12/22 06:01:42;;;;;;;;;;;;;;;;;;;;;
2020/12/22 06:04:18;;;;;;;8.50;8.00;;;13.70;99.90;;;;;;6008188;23;20489;-79
2020/12/22 06:10:15;;;;;;;6.23;5.73;;;13.80;99.90;;;;;;6195278;23;20412;-80
2020/12/22 06:13:16;;;;;;;;;;;;;;;;;;;;;
2020/12/22 06:15:59;;;;;;;8.50;8.00;;;13.70;99.90;;;;;;6103951;23;20475;-81
2020/12/22 06:22:45;;;;;;;10.30;9.70;;;13.80;99.90;;;;;;5877148;24;20470;-81
2020/12/22 06:25:28;;;;;;;12.30;11.60;;;13.70;99.90;;;;;;5982977;23;20471;-80
2020/12/22 06:28:05;;;;;;;10.20;9.60;;;13.70;99.90;;;;;;6186041;23;20440;-81
2020/12/22 06:31:43;;;;;;;;;;;;;;;;;;;;;
2020/12/22 06:34:30;;;;;;;15.33;14.43;;;13.70;99.90;;;;;;6058477;23;20488;-80
2020/12/22 06:47:38;;;;;;;;;;;;;;;;;;;;;
2020/12/22 07:17:48;;;;;;;4.87;2.60;;;14.00;99.90;;;;;;5895706;23;20456;-80
2020/12/22 07:20:20;;;;;;;5.60;2.60;;;14.00;99.90;;;;;;5992186;23;20558;-82
2020/12/22 07:22:48;;;;;;;5.40;3.07;;;14.00;99.90;;;;;;6009210;23;20407;-80
2020/12/22 07:25:40;;;;;;;4.67;3.20;;;14.00;99.90;;;;;;6036459;23;20515;-81
2020/12/22 07:28:50;;;;;;;5.30;4.80;;;13.90;99.90;;;;;;6154852;23;20408;-81
2020/12/22 07:31:34;;;;;;;4.87;4.37;;;13.80;99.90;;;;;;5990015;24;20433;-80
2020/12/22 07:34:42;;;;;;;;;;;;;;;;;;;;;
2020/12/22 07:37:35;;;;;;;4.70;4.10;;;13.90;99.90;;;;;;6045851;23;20453;-81
2020/12/22 07:40:13;;;;;;;3.90;2.80;;;13.90;99.90;;;;;;6144087;23;20432;-80
2020/12/22 07:42:47;;;;;;;4.53;2.40;;;13.90;99.90;;;;;;6154805;23;20406;-81
2020/12/22 07:45:14;;;;;;;6.03;2.00;;;14.00;99.90;;;;;;6156548;23;20481;-80
2020/12/22 07:47:43;;;;;;;6.07;2.17;;;14.00;99.90;;;;;;6178264;23;20782;-81
2020/12/22 07:50:23;;;;;;;5.37;2.07;;;13.90;99.90;;;;;;6185566;23;20409;-82
2020/12/22 07:53:00;;;;;;;6.10;2.63;;;14.00;99.90;;;;;;6186025;23;20409;-83
2020/12/22 07:55:38;;;;;;;6.43;3.40;;;13.80;99.90;;;;;;6195374;23;20471;-81
2020/12/22 07:58:08;;;;;;;7.83;4.63;;;13.80;99.90;;;;;;6194424;23;20491;-82
2020/12/22 08:00:37;;;;;;;6.20;5.30;;;13.70;99.90;;;;;;6179041;23;20409;-80
2020/12/22 08:03:14;;;;;;;6.83;6.17;;;13.70;99.90;;;;;;6185096;23;20516;-81
2020/12/22 08:05:57;;;;;;;7.40;5.90;;;13.60;99.90;;;;;;6184949;23;20397;-81
2020/12/22 08:08:42;;;;;;;8.43;5.30;;;13.60;99.90;;;;;;6183634;23;20429;-81
2020/12/22 08:11:10;;;;;;;5.10;4.57;;;13.60;99.90;;;;;;6185019;23;20429;-81
2020/12/22 08:16:12;;;;;;;10.00;5.40;;;13.80;99.90;;;;;;6149147;23;20474;-81
2020/12/22 08:18:39;;;;;;;6.50;6.00;;;13.80;99.90;;;;;;6155113;23;20817;-81
2020/12/22 08:21:06;;;;;;;10.17;9.57;;;13.70;99.90;;;;;;6154770;23;20406;-82
2020/12/22 08:23:34;;;;;;;19.20;18.30;;;13.70;99.90;;;;;;6151164;23;20406;-81
2020/12/22 08:26:01;;;;;;;36.30;34.80;;;13.50;99.90;;;;;;6160264;23;20729;-81
2020/12/22 08:28:28;;;;;;;57.23;54.93;;;13.40;99.90;;;;;;6161572;23;20421;-81
2020/12/22 08:31:06;;;;;;;54.50;52.20;;;13.30;99.90;;;;;;6161209;23;20434;-81
2020/12/22 08:33:36;;;;;;;71.27;68.27;;;13.30;99.90;;;;;;6151301;23;20602;-81
2020/12/22 08:36:05;;;;;;;64.87;62.37;;;13.20;99.90;;;;;;6154561;23;20481;-81
2020/12/22 08:38:34;;;;;;;63.17;60.77;;;13.30;99.90;;;;;;6161854;23;20446;-82
2020/12/22 08:41:13;;;;;;;50.10;48.00;;;13.30;99.90;;;;;;6151947;23;20406;-75
2020/12/22 08:43:48;;;;;;;19.87;18.87;;;13.40;99.90;;;;;;6151725;23;20730;-74
2020/12/22 08:46:35;;;;;;;7.10;6.40;;;13.50;99.90;;;;;;6151362;23;20483;-77
2020/12/22 08:49:19;;;;;;;6.30;4.73;;;13.70;99.90;;;;;;6160320;23;20182;-80
2020/12/22 08:51:48;;;;;;;5.97;5.47;;;13.70;99.90;;;;;;6150875;23;20402;-81
2020/12/22 08:54:30;;;;;;;7.13;5.37;;;13.70;99.90;;;;;;6152285;23;20437;-80
2020/12/22 08:57:08;;;;;;;4.07;3.50;;;13.70;99.90;;;;;;6141433;23;20438;-80
2020/12/22 08:59:43;;;;;;;4.73;2.80;;;13.70;99.90;;;;;;6163137;23;20500;-80
2020/12/22 09:02:26;;;;;;;5.43;2.70;;;13.60;99.90;;;;;;6151409;23;20725;-80
2020/12/22 09:04:53;;;;;;;4.00;2.60;;;13.70;99.90;;;;;;6162554;23;20406;-81
2020/12/22 09:07:19;;;;;;;4.53;2.60;;;13.70;99.90;;;;;;6175026;23;20402;-80
2020/12/22 09:10:18;;;;;;;;;;;;;;;;;;;;;
2020/12/22 09:12:45;;;;;;;5.50;2.70;;;13.70;99.90;;;;;;6175812;23;20519;-80
2020/12/22 09:15:27;;;;;;;4.73;2.67;;;13.70;99.90;;;;;;6174405;23;20940;-81
2020/12/22 09:17:57;;;;;;;5.50;2.53;;;13.70;99.90;;;;;;6179194;23;21031;-80
2020/12/22 09:24:03;;;;;;;;;;;;;;;;;;;;;
2020/12/22 09:27:23;;;;;;;;;;;;;;;;;;;;;
2020/12/22 09:29:59;;;;;;;4.20;2.20;;;14.10;99.90;;;;;;6099897;23;21813;-82
2020/12/22 09:36:13;;;;;;;6.13;2.50;;;14.00;99.90;;;;;;5924639;24;20428;-81
2020/12/22 09:38:40;;;;;;;5.10;2.70;;;14.10;99.90;;;;;;6074105;23;20455;-80
2020/12/22 09:41:08;;;;;;;4.37;2.60;;;14.10;99.90;;;;;;6115324;23;20417;-81
2020/12/22 09:43:52;;;;;;;5.07;3.77;;;14.10;99.90;;;;;;6150851;23;20398;-81
2020/12/22 09:46:28;;;;;;;7.63;6.93;;;14.00;99.90;;;;;;6162329;23;20412;-82
2020/12/22 09:49:10;;;;;;;10.20;9.37;;;14.00;99.90;;;;;;6150547;23;20410;-82
2020/12/22 09:54:35;;;;;;;17.77;16.77;;;13.90;99.90;;;;;;6159145;23;20422;-82
2020/12/22 09:57:14;;;;;;;25.37;24.10;;;13.70;99.90;;;;;;6153191;23;20437;-82
2020/12/22 09:59:43;;;;;;;20.53;19.33;;;13.70;99.90;;;;;;6160654;23;20419;-81
2020/12/22 10:02:09;;;;;;;18.70;17.70;;;13.70;99.90;;;;;;6152809;23;20868;-81
2020/12/22 10:04:45;;;;;;;;;;;;;;;;;;;;;
2020/12/22 10:07:14;;;;;;;9.10;8.50;;;13.80;99.90;;;;;;6085867;23;20410;-82
2020/12/22 10:09:59;;;;;;;7.00;6.40;;;13.90;99.90;;;;;;6151930;23;20469;-82
2020/12/22 10:13:02;;;;;;;;;;;;;;;;;;;;;
2020/12/22 10:15:54;;;;;;;;;;;;;;;;;;;;;
2020/12/22 10:18:22;;;;;;;4.57;3.07;;;14.30;99.90;;;;;;6150013;23;20457;-82
2020/12/22 10:20:53;;;;;;;4.30;2.73;;;14.40;99.90;;;;;;6155358;23;20720;-82
2020/12/22 10:23:52;;;;;;;6.30;2.40;;;14.40;99.90;;;;;;6164479;23;20445;-85
2020/12/22 10:26:22;;;;;;;4.23;2.00;;;14.50;99.90;;;;;;6147638;23;20414;-81
2020/12/22 10:32:22;;;;;;;3.50;1.40;;;14.70;97.90;;;;;;6033074;23;20418;-82
2020/12/22 10:35:15;;;;;;;4.63;1.40;;;14.80;96.30;;;;;;6037241;23;20476;-82
2020/12/22 10:38:07;;;;;;;4.90;1.57;;;14.60;95.20;;;;;;6035845;23;20536;-82
2020/12/22 10:40:35;;;;;;;3.80;1.50;;;14.50;94.20;;;;;;6029550;23;20747;-82
2020/12/22 10:43:01;;;;;;;4.73;1.23;;;14.50;94.80;;;;;;6034627;23;20409;-81
2020/12/22 10:45:28;;;;;;;4.50;1.37;;;14.50;92.80;;;;;;6035722;23;20501;-81
2020/12/22 10:47:55;;;;;;;4.20;1.17;;;14.50;92.70;;;;;;6154711;23;20406;-81
2020/12/22 10:50:22;;;;;;;4.47;1.23;;;14.40;92.40;;;;;;6154994;23;20402;-81
2020/12/22 10:52:59;;;;;;;3.60;1.20;;;14.40;91.10;;;;;;6154422;23;20874;-81
2020/12/22 10:55:26;;;;;;;4.83;1.10;;;14.40;91.40;;;;;;6164682;23;20464;-81
2020/12/22 10:57:54;;;;;;;4.47;1.70;;;14.40;92.10;;;;;;6153363;23;20440;-82
2020/12/22 11:00:21;;;;;;;6.23;1.20;;;14.50;91.80;;;;;;6155089;23;20734;-81
2020/12/22 11:02:50;;;;;;;4.83;1.17;;;14.50;92.00;;;;;;6154817;23;20411;-81
2020/12/22 11:08:02;;;;;;;7.03;1.40;;;14.70;91.60;;;;;;6153516;23;20409;-81
2020/12/22 11:10:30;;;;;;;3.87;1.30;;;14.70;91.70;;;;;;6164465;23;20410;-81
2020/12/22 11:12:57;;;;;;;3.80;1.13;;;14.80;89.70;;;;;;6154698;23;20827;-81
2020/12/22 11:15:24;;;;;;;4.13;1.27;;;14.80;85.90;;;;;;6156851;23;20402;-81
2020/12/22 11:17:50;;;;;;;5.60;1.27;;;14.70;86.50;;;;;;6155701;23;20950;-82
2020/12/22 11:20:22;;;;;;;6.37;1.60;;;14.80;87.80;;;;;;6156182;23;20408;-81
2020/12/22 11:22:50;;;;;;;5.73;1.50;;;14.80;87.20;;;;;;6166376;23;21094;-81
2020/12/22 11:25:25;;;;;;;4.37;1.60;;;15.10;86.30;;;;;;6155509;23;20398;-82
2020/12/22 11:27:52;;;;;;;5.50;1.17;;;15.00;86.20;;;;;;6155148;23;20925;-81
2020/12/22 11:30:22;;;;;;;5.60;1.20;;;15.10;81.60;;;;;;6156638;23;20402;-81
2020/12/22 11:32:48;;;;;;;5.30;1.20;;;15.20;79.60;;;;;;6166241;23;20494;-82
2020/12/22 11:35:22;;;;;;;6.53;1.30;;;15.10;81.60;;;;;;6156627;23;20453;-82
2020/12/22 11:37:56;;;;;;;4.40;1.00;;;15.00;78.90;;;;;;6156265;23;20438;-82
2020/12/22 11:40:32;;;;;;;4.20;1.10;;;15.00;79.00;;;;;;6156065;23;20407;-82
2020/12/22 11:43:22;;;;;;;4.57;1.30;;;15.20;74.40;;;;;;6154606;23;20952;-83
2020/12/22 11:46:12;;;;;;;4.00;1.00;;;15.20;72.80;;;;;;6153919;23;20955;-82
2020/12/22 11:48:38;;;;;;;4.80;1.17;;;15.10;71.10;;;;;;6154158;23;20438;-82
2020/12/22 11:51:05;;;;;;;4.40;1.00;;;15.00;71.00;;;;;;6156979;23;20402;-82
2020/12/22 11:53:33;;;;;;;5.10;1.37;;;14.90;71.50;;;;;;6156443;23;20403;-81
2020/12/22 11:55:59;;;;;;;3.70;0.80;;;14.70;73.20;;;;;;6156270;23;20398;-82
2020/12/22 11:58:27;;;;;;;4.30;1.10;;;14.60;73.30;;;;;;6155047;23;20442;-82
2020/12/22 12:00:55;;;;;;;5.27;1.10;;;14.50;73.90;;;;;;6156592;23;20437;-82
2020/12/22 12:03:23;;;;;;;7.30;1.20;;;14.40;76.10;;;;;;6156255;23;20405;-82
2020/12/22 12:05:59;;;;;;;3.70;0.80;;;14.40;73.70;;;;;;6166644;23;20417;-81
2020/12/22 12:08:27;;;;;;;4.27;1.10;;;14.40;72.60;;;;;;6156409;23;20402;-82
2020/12/22 12:10:54;;;;;;;4.57;1.10;;;14.40;73.30;;;;;;6165715;23;20930;-82
2020/12/22 12:13:21;;;;;;;4.77;1.10;;;14.40;73.10;;;;;;6155170;23;20732;-82
2020/12/22 12:16:04;;;;;;;6.33;1.17;;;14.50;74.60;;;;;;6166386;23;20902;-82
2020/12/22 12:18:45;;;;;;;6.43;1.00;;;14.50;73.30;;;;;;6165691;23;20430;-82
2020/12/22 12:21:15;;;;;;;5.50;1.53;;;14.50;72.80;;;;;;6165888;23;20445;-82
2020/12/22 12:23:42;;;;;;;3.63;1.00;;;14.40;73.20;;;;;;6165628;23;20516;-82
2020/12/22 12:26:26;;;;;;;3.90;0.93;;;14.50;70.70;;;;;;6165668;23;20748;-82
2020/12/22 12:29:08;;;;;;;6.70;1.10;;;14.40;73.50;;;;;;6154547;23;20460;-82
2020/12/22 12:31:38;;;;;;;4.47;1.30;;;14.50;74.10;;;;;;6156579;23;20409;-82
2020/12/22 12:34:05;;;;;;;4.80;1.30;;;14.50;72.70;;;;;;6166462;23;20425;-82
2020/12/22 12:36:32;;;;;;;3.60;0.90;;;14.50;71.50;;;;;;6156436;23;20414;-82
2020/12/22 12:39:13;;;;;;;4.00;1.00;;;14.50;72.60;;;;;;6156379;23;20442;-82
2020/12/22 12:41:57;;;;;;;7.10;1.40;;;14.50;73.20;;;;;;6156044;23;20924;-82
2020/12/22 12:44:25;;;;;;;5.40;0.90;;;14.50;71.80;;;;;;6116615;23;20970;-82
2020/12/22 12:46:55;;;;;;;4.37;1.10;;;14.50;71.80;;;;;;6166429;23;20426;-82
2020/12/22 12:49:21;;;;;;;7.37;1.33;;;14.40;72.60;;;;;;6156442;23;20403;-82
2020/12/22 12:51:48;;;;;;;5.17;1.40;;;14.40;72.60;;;;;;6165927;23;20413;-82
2020/12/22 12:54:26;;;;;;;5.13;1.30;;;14.40;73.10;;;;;;6156317;23;20408;-82
2020/12/22 12:57:14;;;;;;;6.70;1.40;;;14.40;73.10;;;;;;6156270;23;20731;-82
2020/12/22 12:59:42;;;;;;;5.03;1.20;;;14.40;73.10;;;;;;6166164;23;20410;-82
2020/12/22 13:02:08;;;;;;;3.77;0.90;;;14.30;73.70;;;;;;6156016;23;20394;-82
2020/12/22 13:04:36;;;;;;;4.30;1.07;;;14.30;74.50;;;;;;6166102;23;20406;-83
2020/12/22 13:07:15;;;;;;;4.10;1.33;;;14.30;74.50;;;;;;6156217;23;20445;-83
2020/12/22 13:09:44;;;;;;;6.27;1.50;;;14.30;74.30;;;;;;6166006;23;20409;-82
2020/12/22 13:12:12;;;;;;;4.80;1.30;;;14.50;74.20;;;;;;6154773;23;20398;-83
2020/12/22 13:14:39;;;;;;;4.60;1.20;;;14.60;73.30;;;;;;6152882;23;20913;-82
2020/12/22 13:17:05;;;;;;;4.60;1.30;;;14.60;72.50;;;;;;6163122;23;20436;-82
2020/12/22 13:20:05;;;;;;;;;;;;;;;;;;;;;
2020/12/22 13:22:50;;;;;;;5.90;1.50;;;14.50;73.20;;;;;;5982216;24;20443;-82
2020/12/22 13:25:20;;;;;;;5.47;1.40;;;14.50;73.50;;;;;;6118726;23;20429;-82
2020/12/22 13:27:50;;;;;;;3.93;1.17;;;14.30;73.30;;;;;;6151503;23;20406;-82
2020/12/22 13:30:22;;;;;;;5.97;1.23;;;14.20;75.00;;;;;;6153577;23;20398;-82
2020/12/22 13:32:50;;;;;;;4.13;1.70;;;14.10;75.90;;;;;;6162876;23;20409;-81
2020/12/22 13:35:29;;;;;;;5.17;1.47;;;14.10;76.60;;;;;;6152267;23;20395;-82
2020/12/22 13:37:59;;;;;;;5.03;1.20;;;14.10;76.60;;;;;;6151955;23;20466;-82
2020/12/22 13:43:31;;;;;;;5.77;1.53;;;14.00;80.60;;;;;;6131471;23;20903;-82
2020/12/22 13:46:06;;;;;;;6.23;1.63;;;14.00;79.10;;;;;;6153520;23;20894;-82
2020/12/22 13:48:51;;;;;;;;;;;;;;;;;;;;;
2020/12/22 13:51:18;;;;;;;6.00;1.60;;;13.90;78.70;;;;;;6163123;23;20923;-81
2020/12/22 13:56:36;;;;;;;4.20;2.10;;;13.70;82.10;;;;;;6115026;23;20422;-82
2020/12/22 13:59:07;;;;;;;5.50;2.40;;;13.60;84.70;;;;;;6154136;23;20520;-82
2020/12/22 14:02:03;;;;;;;7.40;2.77;;;13.40;87.20;;;;;;6155433;23;20434;-83
2020/12/22 14:07:16;;;;;;;5.40;2.80;;;13.30;91.40;;;;;;6153208;23;20433;-83
2020/12/22 14:09:44;;;;;;;6.93;3.73;;;13.20;93.10;;;;;;6155252;23;20772;-82
2020/12/22 14:12:14;;;;;;;5.83;4.23;;;13.20;94.50;;;;;;6153837;23;20395;-82
2020/12/22 14:14:41;;;;;;;7.33;3.83;;;13.30;95.90;;;;;;6155509;23;20394;-82
2020/12/22 14:17:33;;;;;;;;;;;;;;;;;;;;;
2020/12/22 14:20:08;;;;;;;8.53;4.33;;;13.20;96.00;;;;;;6102388;23;20915;-82
2020/12/22 14:23:06;;;;;;;;;;;;;;;;;;;;;
2020/12/22 14:25:38;;;;;;;5.43;4.33;;;13.30;96.60;;;;;;6183093;23;20417;-82
2020/12/22 14:28:22;;;;;;;;;;;;;;;;;;;;;
2020/12/22 14:31:13;;;;;;;5.87;4.40;;;13.10;98.20;;;;;;6193776;23;20412;-83
2020/12/22 14:33:55;;;;;;;5.10;3.97;;;13.10;98.10;;;;;;6193392;23;20401;-82
2020/12/22 14:36:43;;;;;;;;;;;;;;;;;;;;;
2020/12/22 14:39:37;;;;;;;7.57;4.97;;;13.00;98.60;;;;;;6162720;23;20451;-83
2020/12/22 14:42:28;;;;;;;5.77;5.27;;;12.90;99.90;;;;;;6182183;23;20760;-82
2020/12/22 14:54:48;;;;;;;7.70;5.40;;;12.90;99.90;;;;;;6197186;23;20495;-83
2020/12/22 14:57:21;;;;;;;6.67;4.50;;;12.90;99.90;;;;;;6008161;23;20418;-82
2020/12/22 15:00:23;;;;;;;;;;;;;;;;;;;;;
2020/12/22 15:02:49;;;;;;;11.00;3.53;;;13.00;99.90;;;;;;5966629;23;20419;-83
2020/12/22 15:05:34;;;;;;;;;;;;;;;;;;;;;
2020/12/22 15:08:26;;;;;;;;;;;;;;;;;;;;;
2020/12/22 15:11:01;;;;;;;5.27;2.50;;;12.90;97.90;;;;;;6184143;23;20896;-82
2020/12/22 15:13:43;;;;;;;6.30;2.40;;;13.00;95.50;;;;;;6185108;23;20401;-83
2020/12/22 15:16:14;;;;;;;4.93;2.37;;;13.10;94.50;;;;;;6195908;23;20920;-82
2020/12/22 15:18:40;;;;;;;5.90;1.90;;;13.00;94.70;;;;;;6185213;23;20491;-81
2020/12/22 15:21:12;;;;;;;6.90;2.03;;;12.90;93.10;;;;;;6186204;23;20416;-82
2020/12/22 15:23:40;;;;;;;4.37;1.80;;;13.00;93.10;;;;;;6195910;23;20437;-82
2020/12/22 15:26:06;;;;;;;4.10;1.60;;;13.10;91.50;;;;;;6186620;23;20401;-82
2020/12/22 15:28:32;;;;;;;5.30;1.63;;;13.20;89.70;;;;;;6184878;23;20404;-81
2020/12/22 15:30:59;;;;;;;4.50;1.50;;;13.10;89.30;;;;;;6195724;23;20409;-82
2020/12/22 15:36:52;;;;;;;5.17;2.40;;;13.20;87.60;;;;;;5851730;24;20425;-81
2020/12/22 15:39:39;;;;;;;4.63;1.87;;;13.20;84.50;;;;;;6162023;23;20905;-81
2020/12/22 15:42:23;;;;;;;4.70;1.60;;;13.20;84.70;;;;;;6183070;23;20405;-81
2020/12/22 15:45:32;;;;;;;4.97;1.57;;;13.20;84.00;;;;;;6196540;23;20401;-81
2020/12/22 15:48:04;;;;;;;4.97;1.20;;;13.20;84.20;;;;;;6032539;23;20901;-82
2020/12/22 15:50:30;;;;;;;4.33;1.50;;;13.10;84.00;;;;;;6196165;23;20955;-82
2020/12/22 15:53:00;;;;;;;4.63;2.07;;;13.20;82.90;;;;;;6186247;23;20464;-78
2020/12/22 15:55:43;;;;;;;4.87;1.70;;;13.30;82.90;;;;;;6186746;23;20427;-83
2020/12/22 15:58:11;;;;;;;7.80;1.73;;;13.30;83.10;;;;;;6184828;23;20437;-82
2020/12/22 16:00:39;;;;;;;6.43;1.73;;;13.20;83.50;;;;;;6196597;23;20448;-82
2020/12/22 16:03:06;;;;;;;4.07;1.40;;;13.20;84.50;;;;;;6196243;23;20413;-82
2020/12/22 16:05:32;;;;;;;13.00;2.40;;;13.10;84.90;;;;;;6186240;23;20433;-83
2020/12/22 16:07:59;;;;;;;5.90;2.57;;;13.10;86.80;;;;;;6196495;23;20722;-81
2020/12/22 16:10:25;;;;;;;7.07;2.70;;;13.10;88.10;;;;;;6186562;23;20401;-82
2020/12/22 16:13:21;;;;;;;5.63;2.80;;;12.90;89.60;;;;;;6194647;23;20417;-82
2020/12/22 16:15:54;;;;;;;7.53;2.37;;;12.90;90.40;;;;;;6186053;23;20398;-83
2020/12/22 16:18:38;;;;;;;6.30;2.90;;;12.80;91.50;;;;;;6196358;23;20436;-83
2020/12/22 16:21:08;;;;;;;4.80;2.40;;;12.90;92.80;;;;;;6186362;23;20402;-82
2020/12/22 16:23:46;;;;;;;;;;;;;;;;;;;;;
2020/12/22 16:26:19;;;;;;;9.53;3.67;;;12.80;94.10;;;;;;6188162;23;20488;-82
2020/12/22 16:28:55;;;;;;;6.90;3.60;;;12.70;95.40;;;;;;6194559;23;20436;-82
2020/12/22 16:31:30;;;;;;;6.80;4.30;;;12.70;96.50;;;;;;6195981;23;20408;-82
2020/12/22 16:34:02;;;;;;;11.27;5.57;;;12.70;98.70;;;;;;6119435;23;20459;-82